KSUN

Friedman Memorial Airport

Hailey, Idaho, USA
METAR KSUN 161255Z AUTO 32009KT 10SM CLR M03/M05 A3024 RMK AO2
Observed Flight Rules
Dec-16 @ 12:55 UTC (9 minutes ago) Visual Flight Rules
Wind Visibility Clouds
320° at 9 knots 10 miles
  • Clear skies
Temperatures Readings
Current -3°C / 27°F
Dewpoint -5°C / 23°F
Humidity 86%
Altimeter 30.24" Hg
Pressure 1024 hPa
Elevation 1620
METAR KSUN 161255Z AUTO 32009KT 10SM CLR M03/M05 A3024 RMK AO2
Observed Flight Rules
Dec-16 @ 12:55 UTC
(9 minutes ago)
VFR
Wind Visibility
320° at 9 knots 10 miles
Clouds
  • Clear skies
Temperature Dewpoint
-3°C / 27°F -5°C / 23°F
Humidity Altimeter Pressure
86% 30.24" Hg 1024 hPa